WetterOnline ( http://www.wetteronline.de )

Wetter aktuell Regensburg

Aktuelles Wetter: Regensburg/Oberhub (371m)

6-stündlich | Neueste Meldungen
Ortszeit Temperatur Wetter
Di, 17.07. 8:00 15.3° C fast wolkenlos
Di, 17.07. 2:00 14.6° C bewölkt
Mo, 16.07. 20:00 20.9° C wolkig
Mo, 16.07. 14:00 25.4° C bewölkt
Mo, 16.07. 8:00 16.5° C bedeckt
Mo, 16.07. 2:00 14.1° C leicht bewölkt
So, 15.07. 20:00 20.9° C leicht bewölkt
So, 15.07. 14:00 21.7° C leichter Regen
Ortszeit Temperatur Wetter
Di, 17.07. 8:00 15.3° C fast wolkenlos
Di, 17.07. 7:40 14.7° C wolkenlos
Di, 17.07. 7:30 13.8° C fast wolkenlos
Di, 17.07. 7:20 13.8° C fast wolkenlos
Di, 17.07. 7:10 13.5° C fast wolkenlos
Di, 17.07. 7:00 13.0° C wolkenlos
Di, 17.07. 6:50 13.0° C wolkenlos
Di, 17.07. 6:30 12.7° C fast wolkenlos
Di, 17.07. 6:00 12.8° C leicht bewölkt
Di, 17.07. 5:30 12.9° C wolkenlos
Di, 17.07. 5:00 12.9° C fast wolkenlos
Di, 17.07. 4:30 13.3° C fast wolkenlos
Ortszeit Relative Feuchte Sichtweite
Di, 17.07. 8:00 90% 16 km
Di, 17.07. 2:00 95% 9 km
Mo, 16.07. 20:00 57% 40 km
Mo, 16.07. 14:00 46% 26 km
Mo, 16.07. 8:00 85% 13 km
Mo, 16.07. 2:00 94% 14 km
So, 15.07. 20:00 62% 30 km
So, 15.07. 14:00 54% 16 km
Ortszeit Relative Feuchte Sichtweite
Di, 17.07. 8:00 90% 16 km
Di, 17.07. 7:40 93% -
Di, 17.07. 7:30 96% 13 km
Di, 17.07. 7:20 96% -
Di, 17.07. 7:10 97% -
Di, 17.07. 7:00 97% 6 km
Di, 17.07. 6:50 97% -
Di, 17.07. 6:30 98% 4.7 km
Di, 17.07. 6:00 97% 5.0 km
Di, 17.07. 5:30 97% 5.0 km
Di, 17.07. 5:00 97% 7 km
Di, 17.07. 4:30 97% 7 km
Ortszeit Niederschlagsmenge Niederschlagsart
Di, 17.07. 8:00 0.0 l/m2 in 12 Std. -
Di, 17.07. 2:00 0.0 l/m2 in 6 Std. -
Mo, 16.07. 20:00 17 l/m2 in 12 Std. Regenschauer
Mo, 16.07. 14:00 0.0 l/m2 in 6 Std. -
Mo, 16.07. 8:00 0.0 l/m2 in 12 Std. -
Mo, 16.07. 2:00 0.0 l/m2 in 6 Std. -
So, 15.07. 20:00 2 l/m2 in 12 Std. Regen
So, 15.07. 14:00 0.1 l/m2 in 6 Std. Regen
Ortszeit Niederschlagsmenge Niederschlagsart
Di, 17.07. 8:00 0.0 l/m2 in 1 Std. -
Di, 17.07. 7:40 keine Meldung -
Di, 17.07. 7:30 0.0 l/m2 in 1 Std. -
Di, 17.07. 7:20 keine Meldung -
Di, 17.07. 7:10 keine Meldung -
Di, 17.07. 7:00 0.1 l/m2 in 1 Std. -
Di, 17.07. 6:50 keine Meldung -
Di, 17.07. 6:30 0.0 l/m2 in 1 Std. -
Di, 17.07. 6:00 0.0 l/m2 in 1 Std. -
Di, 17.07. 5:30 0.0 l/m2 in 1 Std. -
Di, 17.07. 5:00 0.0 l/m2 in 1 Std. -
Di, 17.07. 4:30 0.0 l/m2 in 1 Std. -
Ortszeit Stärke Spitze Richtung
km/h Bft. km/h Grad Sektor
Di, 17.07. 8:00 0 0 11 - -
Di, 17.07. 2:00 4 1 11 10° N
Mo, 16.07. 20:00 7 2 25 30° NO
Mo, 16.07. 14:00 7 2 14 320° NW
Mo, 16.07. 8:00 4 1 7 160° S
Mo, 16.07. 2:00 4 1 11 360° N
So, 15.07. 20:00 7 2 47 150° SO
So, 15.07. 14:00 13 3 41 290° W
Ortszeit Stärke Spitze Richtung
km/h Bft. km/h Grad Sektor
Di, 17.07. 8:00 0 0 7 - -
Di, 17.07. 7:40 2 1 - 260° W
Di, 17.07. 7:30 4 1 7 340° N
Di, 17.07. 7:20 4 1 - 340° N
Di, 17.07. 7:10 4 1 - 20° N
Di, 17.07. 7:00 4 1 11 320° NW
Di, 17.07. 6:50 4 1 - 320° NW
Di, 17.07. 6:30 6 1 7 340° N
Di, 17.07. 6:00 4 1 7 10° N
Di, 17.07. 5:30 4 1 7 320° NW
Di, 17.07. 5:00 4 1 7 300° NW
Di, 17.07. 4:30 7 2 7 10° N
Ortszeit Untergrenze Bedeckung Gattung
total tief tief mittel hoch
Di, 17.07. 8:00 9000 m 2/8 0/8 - - -
Di, 17.07. 2:00 2700 m 7/8 7/8 - - -
Mo, 16.07. 20:00 4200 m 7/8 7/8 - - -
Mo, 16.07. 14:00 1320 m 8/8 7/8 - - -
Mo, 16.07. 8:00 4200 m 8/8 8/8 - - -
Mo, 16.07. 2:00 9000 m 5/8 0/8 - - -
So, 15.07. 20:00 4500 m 5/8 3/8 - - -
So, 15.07. 14:00 1800 m 8/8 2/8 - - -
Ortszeit Bedeckungsgrad in Achtel und Wolkenuntergrenze
Di, 17.07. 8:00 2(9000m)
Di, 17.07. 7:40 keine Wolken
Di, 17.07. 7:30 1(9000m)
Di, 17.07. 7:20 1(9000m)
Di, 17.07. 7:10 1(9000m)
Di, 17.07. 7:00 1(9000m)
Di, 17.07. 6:50 keine Wolken
Di, 17.07. 6:30 1(9000m)
Di, 17.07. 6:00 1(3000m) 4(9000m)
Di, 17.07. 5:30 1(3600m)
Di, 17.07. 5:00 1(3300m)
Di, 17.07. 4:30 1(3300m) 1(3300m)
Ortszeit Luftdruck NN (hPa) Tendenz (hPa in 3 Std.)
Di, 17.07. 8:00 1014 + 0,8
Di, 17.07. 2:00 1014 + 0,4
Mo, 16.07. 20:00 1011 - 1,0
Mo, 16.07. 14:00 1012 - 1,4
Mo, 16.07. 8:00 1015 + 0,2
Mo, 16.07. 2:00 1016 + 0,1
So, 15.07. 20:00 1014 - 1,0
So, 15.07. 14:00 1015 - 1,0
Ortszeit Luftdruck NN (hPa) Tendenz (hPa in 3 Std.)
Di, 17.07. 8:00 1014 + 0,8
Di, 17.07. 7:40 1015 keine Meldung
Di, 17.07. 7:30 1015 + 0,9
Di, 17.07. 7:20 1015 keine Meldung
Di, 17.07. 7:10 1015 keine Meldung
Di, 17.07. 7:00 1015 + 0,8
Di, 17.07. 6:50 1015 keine Meldung
Di, 17.07. 6:30 1014 + 0,5
Di, 17.07. 6:00 1014 + 0,7
Di, 17.07. 5:30 1014 + 0,4
Di, 17.07. 5:00 1014 + 0,2
Di, 17.07. 4:30 1014 - 0,2
Ortszeit Schneehöhe (cm)
Di, 17.07. 8:00 -
Di, 17.07. 2:00 -
Mo, 16.07. 20:00 -
Mo, 16.07. 14:00 -
Mo, 16.07. 8:00 -
Mo, 16.07. 2:00 -
So, 15.07. 20:00 -
So, 15.07. 14:00 -
Ortszeit Schneehöhe (cm)
Di, 17.07. 8:00 -
Di, 17.07. 7:40 -
Di, 17.07. 7:30 -
Di, 17.07. 7:20 -
Di, 17.07. 7:10 -
Di, 17.07. 7:00 -
Di, 17.07. 6:50 -
Di, 17.07. 6:30 -
Di, 17.07. 6:00 -
Di, 17.07. 5:30 -
Di, 17.07. 5:00 -
Di, 17.07. 4:30 -
Link zu dieser Seite / Seite empfehlen

Das Wetter in ...